Aviation Digital Data Service (ADDS)

Output produced by METARs form (0914 UTC 20 January 2018)
found at http://aviationweather.gov/adds/metars/
 
KUTS 200816Z 2008/2106 16005KT 2SM BR VCSH OVC002 
     FM201300 VRB04KT 5SM BR VCSH OVC005 
     FM201500 18008KT P6SM VCSH BKN007 OVC015 
     FM201800 19010G18KT P6SM VCSH SCT010 OVC020 
     FM210000 17010KT 4SM BR VCSH OVC007